Time;durP1;ratioP1;P1;durP2;ratioP2;P2;SDS_P1;SDS_P2;PMS_P1;PMS_P2;Temp;Humidity;BMP_temperature;BMP_pressure;BME280_temperature;BME280_humidity;BME280_pressure;Samples;Min_cycle;Max_cycle;Signal;HPM_P1;HPM_P2
2022/11/07 00:01:28;;;;;;;;;;;7.30;98.90;;;;;;5098253;28;19916;-82
2022/11/07 00:03:53;;;;;;;;;;;7.30;99.10;;;;;;5099170;28;20294;-82
2022/11/07 00:06:19;;;;;;;;;;;7.30;98.70;;;;;;5102745;28;20391;-82
2022/11/07 00:08:45;;;;;;;;;;;7.30;99.10;;;;;;5093261;28;19924;-82
2022/11/07 00:11:10;;;;;;;;;;;7.30;99.20;;;;;;5083575;28;19916;-82
2022/11/07 00:13:35;;;;;;;;;;;7.30;99.40;;;;;;5100915;28;19927;-82
2022/11/07 00:16:02;;;;;;;;;;;7.40;98.90;;;;;;5096392;28;19924;-82
2022/11/07 00:18:28;;;;;;;;;;;7.40;99.20;;;;;;5100756;28;20450;-82
2022/11/07 00:20:54;;;;;;;;;;;7.40;98.90;;;;;;5087716;28;19920;-82
2022/11/07 00:23:19;;;;;;;;;;;7.40;98.80;;;;;;5100026;28;19916;-82
2022/11/07 00:25:45;;;;;;;;;;;7.50;98.70;;;;;;5093945;28;20372;-82
2022/11/07 00:28:10;;;;;;;;;;;7.50;98.70;;;;;;5104741;28;20349;-82
2022/11/07 00:30:36;;;;;;;;;;;7.50;98.00;;;;;;5104966;28;19924;-82
2022/11/07 00:33:01;;;;;;;;;;;7.50;98.30;;;;;;5093950;28;19946;-82
2022/11/07 00:35:27;;;;;;;;;;;7.50;98.40;;;;;;5097566;28;20457;-81
2022/11/07 00:37:53;;;;;;;;;;;7.50;98.20;;;;;;5097177;28;19957;-82
2022/11/07 00:40:18;;;;;;;;;;;7.50;98.20;;;;;;5093643;28;20259;-82
2022/11/07 00:42:44;;;;;;;;;;;7.40;98.80;;;;;;5086230;28;20383;-82
2022/11/07 00:45:10;;;;;;;;;;;7.40;98.30;;;;;;5095070;28;19928;-82
2022/11/07 00:47:36;;;;;;;;;;;7.30;98.70;;;;;;5092537;28;20345;-82
2022/11/07 00:50:01;;;;;;;;;;;7.30;98.70;;;;;;5102033;28;19916;-82
2022/11/07 00:52:27;;;;;;;;;;;7.20;98.70;;;;;;5100076;28;19912;-82
2022/11/07 00:54:52;;;;;;;;;;;7.10;99.00;;;;;;5095431;28;19920;-82
2022/11/07 00:57:18;;;;;;;;;;;7.00;99.70;;;;;;5101588;28;20013;-82
2022/11/07 00:59:43;;;;;;;;;;;6.80;99.90;;;;;;5099327;28;19916;-82
2022/11/07 01:02:09;;;;;;;;;;;6.70;99.90;;;;;;5093417;27;19916;-82
2022/11/07 01:07:19;;;;;;;;;;;6.50;99.90;;;;;;5096015;28;19934;-82
2022/11/07 01:09:45;;;;;;;;;;;6.30;99.90;;;;;;5091014;28;19920;-82
2022/11/07 01:12:10;;;;;;;;;;;6.20;99.90;;;;;;5101749;28;19920;-82
2022/11/07 01:14:36;;;;;;;;;;;6.30;99.90;;;;;;5081479;28;20464;-82
2022/11/07 01:17:01;;;;;;;;;;;6.20;99.90;;;;;;5094059;28;20011;-82
2022/11/07 01:19:27;;;;;;;;;;;6.20;99.90;;;;;;5101359;28;19920;-82
2022/11/07 01:21:52;;;;;;;;;;;6.20;99.90;;;;;;5100432;28;19924;-82
2022/11/07 01:24:18;;;;;;;;;;;6.30;99.90;;;;;;5089837;28;19920;-82
2022/11/07 01:26:46;;;;;;;;;;;6.30;99.90;;;;;;5081079;28;19916;-82
2022/11/07 01:29:12;;;;;;;;;;;6.30;99.90;;;;;;5100307;28;19916;-82
2022/11/07 01:31:38;;;;;;;;;;;6.30;99.90;;;;;;5095123;28;19916;-82
2022/11/07 01:34:04;;;;;;;;;;;6.40;99.90;;;;;;5098447;28;19960;-82
2022/11/07 01:36:30;;;;;;;;;;;6.40;99.90;;;;;;5102035;28;20018;-82
2022/11/07 01:38:55;;;;;;;;;;;6.50;99.90;;;;;;5093939;28;19935;-82
2022/11/07 01:41:25;;;;;;;;;;;6.60;99.90;;;;;;5096258;28;19920;-82
2022/11/07 01:43:55;;;;;;;;;;;6.60;99.90;;;;;;5099807;28;19912;-82
2022/11/07 01:46:23;;;;;;;;;;;6.40;99.90;;;;;;5096313;28;19928;-82
2022/11/07 01:48:55;;;;;;;;;;;6.30;99.90;;;;;;5075005;28;19916;-82
2022/11/07 01:51:21;;;;;;;;;;;6.30;99.90;;;;;;5099156;28;19916;-82
2022/11/07 01:53:47;;;;;;;;;;;6.30;99.90;;;;;;5092154;28;19908;-82
2022/11/07 01:56:14;;;;;;;;;;;6.30;99.90;;;;;;5096864;28;19934;-82
2022/11/07 01:58:40;;;;;;;;;;;6.20;99.90;;;;;;5099245;28;19923;-82
2022/11/07 02:01:06;;;;;;;;;;;6.10;99.90;;;;;;5094832;28;19924;-82
2022/11/07 02:03:31;;;;;;;;;;;6.20;99.90;;;;;;5100691;28;19994;-82
2022/11/07 02:06:09;;;;;;;;;;;6.30;99.90;;;;;;5081846;28;19924;-82
2022/11/07 02:08:35;;;;;;;;;;;6.20;99.90;;;;;;5089204;28;19940;-82
2022/11/07 02:11:02;;;;;;;;;;;6.30;99.90;;;;;;5100263;28;19972;-82
2022/11/07 02:13:28;;;;;;;;;;;6.30;99.90;;;;;;5098842;28;19920;-82
2022/11/07 02:15:54;;;;;;;;;;;6.20;99.90;;;;;;5091956;28;19927;-82
2022/11/07 02:18:21;;;;;;;;;;;6.10;99.90;;;;;;5104188;28;19916;-82
2022/11/07 02:20:46;;;;;;;;;;;6.20;99.90;;;;;;5102621;28;19923;-82
2022/11/07 02:23:15;;;;;;;;;;;6.10;99.90;;;;;;5076747;28;20311;-82
2022/11/07 02:25:40;;;;;;;;;;;6.00;99.90;;;;;;5082712;28;20404;-83
2022/11/07 02:28:07;;;;;;;;;;;6.00;99.90;;;;;;5103134;28;19951;-82
2022/11/07 02:30:33;;;;;;;;;;;5.90;99.90;;;;;;5094026;28;19920;-82
2022/11/07 02:32:59;;;;;;;;;;;6.00;99.90;;;;;;5094936;28;19969;-82
2022/11/07 02:35:38;;;;;;;;;;;5.90;99.90;;;;;;5101117;28;19919;-82
2022/11/07 02:38:10;;;;;;;;;;;6.00;99.90;;;;;;5093498;28;20025;-82
2022/11/07 02:40:36;;;;;;;;;;;6.10;99.90;;;;;;5096410;28;19916;-82
2022/11/07 02:43:02;;;;;;;;;;;6.00;99.90;;;;;;5095114;28;20394;-82
2022/11/07 02:45:29;;;;;;;;;;;5.90;99.90;;;;;;5092329;28;20434;-82
2022/11/07 02:47:55;;;;;;;;;;;5.90;99.90;;;;;;5094715;28;20453;-82
2022/11/07 02:50:21;;;;;;;;;;;6.10;99.90;;;;;;5102797;28;19915;-82
2022/11/07 02:52:46;;;;;;;;;;;6.00;99.90;;;;;;5099027;28;19985;-81
2022/11/07 02:55:13;;;;;;;;;;;6.10;99.90;;;;;;5100075;28;20405;-83
2022/11/07 02:57:39;;;;;;;;;;;6.10;99.90;;;;;;5106990;28;20395;-82
2022/11/07 03:00:05;;;;;;;;;;;6.20;99.90;;;;;;5100820;28;19927;-82
2022/11/07 03:02:31;;;;;;;;;;;6.20;99.90;;;;;;5101598;28;20023;-82
2022/11/07 03:04:57;;;;;;;;;;;6.20;99.90;;;;;;5105568;28;19919;-82
2022/11/07 03:07:23;;;;;;;;;;;6.20;99.90;;;;;;5102251;28;19920;-82
2022/11/07 03:09:48;;;;;;;;;;;6.30;99.90;;;;;;5100886;28;20333;-82
2022/11/07 03:12:14;;;;;;;;;;;6.30;99.90;;;;;;5090295;28;19920;-83
2022/11/07 03:14:39;;;;;;;;;;;6.30;99.90;;;;;;5099593;28;19916;-82
2022/11/07 03:17:05;;;;;;;;;;;6.30;99.90;;;;;;5077473;28;19963;-83
2022/11/07 03:19:30;;;;;;;;;;;6.30;99.90;;;;;;5107665;28;20046;-82
2022/11/07 03:21:56;;;;;;;;;;;6.30;99.90;;;;;;5099221;28;19920;-82
2022/11/07 03:24:22;;;;;;;;;;;6.20;99.90;;;;;;5097475;28;19924;-82
2022/11/07 03:26:47;;;;;;;;;;;6.30;99.90;;;;;;5105384;28;19938;-82
2022/11/07 03:29:13;;;;;;;;;;;6.30;99.90;;;;;;5104879;28;20014;-83
2022/11/07 03:31:38;;;;;;;;;;;6.40;99.90;;;;;;5098544;28;19968;-82
2022/11/07 03:34:04;;;;;;;;;;;6.50;99.90;;;;;;5086680;28;20011;-82
2022/11/07 03:36:29;;;;;;;;;;;6.40;99.90;;;;;;5103993;28;19920;-82
2022/11/07 03:38:55;;;;;;;;;;;6.40;99.90;;;;;;5096943;28;19916;-82
2022/11/07 03:41:20;;;;;;;;;;;6.40;99.90;;;;;;5084249;28;19917;-82
2022/11/07 03:43:46;;;;;;;;;;;6.40;99.90;;;;;;5105534;28;19916;-82
2022/11/07 03:46:12;;;;;;;;;;;6.40;99.90;;;;;;5084153;28;19928;-83
2022/11/07 03:48:39;;;;;;;;;;;6.40;99.90;;;;;;5100935;28;20233;-82
2022/11/07 03:51:05;;;;;;;;;;;6.30;99.90;;;;;;5104287;28;20359;-82
2022/11/07 03:53:31;;;;;;;;;;;6.30;99.90;;;;;;5103220;28;20403;-81
2022/11/07 03:55:57;;;;;;;;;;;6.20;99.90;;;;;;5102514;28;20014;-82
2022/11/07 03:58:23;;;;;;;;;;;6.30;99.90;;;;;;5103173;28;20007;-82
2022/11/07 04:00:48;;;;;;;;;;;6.20;99.90;;;;;;5095113;27;20267;-82
2022/11/07 04:03:14;;;;;;;;;;;6.20;99.90;;;;;;5096920;28;19920;-83
2022/11/07 04:05:39;;;;;;;;;;;6.20;99.90;;;;;;5089416;28;19920;-82
2022/11/07 04:08:05;;;;;;;;;;;6.20;99.90;;;;;;5102431;28;20032;-83
2022/11/07 04:10:30;;;;;;;;;;;6.20;99.90;;;;;;5097354;28;20387;-82
2022/11/07 04:18:26;;;;;;;;;;;6.20;99.90;;;;;;5099651;28;20093;-82
2022/11/07 04:20:51;;;;;;;;;;;6.30;99.90;;;;;;5105607;28;20034;-82
2022/11/07 04:23:17;;;;;;;;;;;6.40;99.90;;;;;;5080703;28;19916;-82
2022/11/07 04:28:26;;;;;;;;;;;6.50;99.90;;;;;;5099217;28;19935;-82
2022/11/07 04:30:51;;;;;;;;;;;6.60;99.90;;;;;;5092692;28;19920;-82
2022/11/07 04:33:17;;;;;;;;;;;6.60;99.90;;;;;;5101748;28;19915;-82
2022/11/07 04:35:42;;;;;;;;;;;6.60;99.90;;;;;;5098912;28;20325;-82
2022/11/07 04:38:08;;;;;;;;;;;6.40;99.90;;;;;;5096207;28;19940;-82
2022/11/07 04:40:34;;;;;;;;;;;6.40;99.90;;;;;;5095679;28;19945;-82
2022/11/07 04:42:59;;;;;;;;;;;6.40;99.90;;;;;;5098683;27;19912;-82
2022/11/07 04:45:25;;;;;;;;;;;6.40;99.90;;;;;;5094398;28;19928;-82
2022/11/07 04:47:50;;;;;;;;;;;6.40;99.90;;;;;;5092101;28;19916;-82
2022/11/07 04:50:17;;;;;;;;;;;6.40;99.90;;;;;;5089073;28;19942;-82
2022/11/07 04:52:43;;;;;;;;;;;6.40;99.90;;;;;;5093079;28;19947;-82
2022/11/07 04:55:15;;;;;;;;;;;6.30;99.90;;;;;;5096137;28;19922;-82
2022/11/07 04:57:40;;;;;;;;;;;6.10;99.90;;;;;;5096814;28;20369;-82
2022/11/07 05:00:06;;;;;;;;;;;6.10;99.90;;;;;;5071900;28;19978;-82
2022/11/07 05:02:32;;;;;;;;;;;6.10;99.90;;;;;;5099874;28;20007;-82
2022/11/07 05:04:57;;;;;;;;;;;6.10;99.90;;;;;;5083419;28;19920;-82
2022/11/07 05:07:23;;;;;;;;;;;6.20;99.90;;;;;;5093985;28;19916;-82
2022/11/07 05:09:48;;;;;;;;;;;6.20;99.90;;;;;;5087327;28;19962;-82
2022/11/07 05:12:14;;;;;;;;;;;6.20;99.90;;;;;;5074702;28;20386;-82
2022/11/07 05:14:39;;;;;;;;;;;6.20;99.90;;;;;;5093853;28;19959;-82
2022/11/07 05:17:05;;;;;;;;;;;6.20;99.90;;;;;;5087942;28;19955;-82
2022/11/07 05:19:30;;;;;;;;;;;6.20;99.90;;;;;;5089698;28;19923;-82
2022/11/07 05:24:40;;;;;;;;;;;6.20;99.90;;;;;;5092025;28;19939;-83
2022/11/07 05:27:06;;;;;;;;;;;6.20;99.90;;;;;;5089114;28;20434;-81
2022/11/07 05:29:31;;;;;;;;;;;6.20;99.90;;;;;;5087901;28;19916;-80
2022/11/07 05:31:57;;;;;;;;;;;6.10;99.90;;;;;;5095720;28;19943;-81
2022/11/07 05:34:22;;;;;;;;;;;6.10;99.90;;;;;;5096666;28;19916;-80
2022/11/07 05:36:48;;;;;;;;;;;6.20;99.90;;;;;;5088028;28;20394;-80
2022/11/07 05:39:13;;;;;;;;;;;6.30;99.90;;;;;;5089899;28;19920;-81
2022/11/07 05:41:39;;;;;;;;;;;6.20;99.90;;;;;;5094939;28;19966;-83
2022/11/07 05:44:04;;;;;;;;;;;6.10;99.90;;;;;;5087291;28;19912;-83
2022/11/07 05:46:30;;;;;;;;;;;6.00;99.90;;;;;;5098949;28;19955;-82
2022/11/07 05:48:55;;;;;;;;;;;6.10;99.90;;;;;;5103807;28;19946;-83
2022/11/07 05:51:21;;;;;;;;;;;6.00;99.90;;;;;;5073410;28;19923;-82
2022/11/07 05:53:46;;;;;;;;;;;6.00;99.90;;;;;;5088982;28;19919;-83
2022/11/07 05:56:12;;;;;;;;;;;6.00;99.90;;;;;;5100880;28;20571;-83
2022/11/07 05:58:37;;;;;;;;;;;6.00;99.90;;;;;;5079283;28;19927;-83
2022/11/07 06:01:04;;;;;;;;;;;5.90;99.90;;;;;;5084786;28;20287;-82
2022/11/07 06:03:30;;;;;;;;;;;5.90;99.90;;;;;;5089069;28;20509;-82
2022/11/07 06:05:56;;;;;;;;;;;6.00;99.90;;;;;;5088520;28;20153;-83
2022/11/07 06:08:21;;;;;;;;;;;6.00;99.90;;;;;;5099627;28;19947;-83
2022/11/07 06:10:47;;;;;;;;;;;6.00;99.90;;;;;;5088129;28;19951;-83
2022/11/07 06:13:13;;;;;;;;;;;6.10;99.90;;;;;;5086311;28;20429;-84
2022/11/07 06:15:43;;;;;;;;;;;6.10;99.90;;;;;;5075695;28;19924;-80
2022/11/07 06:18:16;;;;;;;;;;;6.00;99.90;;;;;;5102981;28;19919;-80
2022/11/07 06:20:41;;;;;;;;;;;6.00;99.90;;;;;;5096361;28;19912;-81
2022/11/07 06:23:07;;;;;;;;;;;5.90;99.90;;;;;;5085729;28;20462;-82
2022/11/07 06:25:33;;;;;;;;;;;5.90;99.90;;;;;;5101228;28;19920;-81
2022/11/07 06:28:03;;;;;;;;;;;5.90;99.90;;;;;;5094265;28;19912;-80
2022/11/07 06:30:29;;;;;;;;;;;6.00;99.90;;;;;;5094609;28;19918;-81
2022/11/07 06:32:55;;;;;;;;;;;6.00;99.90;;;;;;5085548;28;19919;-82
2022/11/07 06:35:21;;;;;;;;;;;6.00;99.90;;;;;;5083741;28;19912;-82
2022/11/07 06:37:46;;;;;;;;;;;6.10;99.90;;;;;;5092062;28;19930;-82
2022/11/07 06:40:12;;;;;;;;;;;6.20;99.90;;;;;;5089754;28;20010;-80
2022/11/07 06:42:41;;;;;;;;;;;6.20;99.90;;;;;;5091888;28;20415;-81
2022/11/07 06:45:06;;;;;;;;;;;6.20;99.90;;;;;;5088772;28;20038;-85
2022/11/07 06:47:32;;;;;;;;;;;6.30;99.90;;;;;;5097719;28;20027;-84
2022/11/07 06:49:57;;;;;;;;;;;6.30;99.90;;;;;;5095953;28;19912;-84
2022/11/07 06:52:23;;;;;;;;;;;6.40;99.90;;;;;;5094395;28;19962;-87
2022/11/07 06:54:48;;;;;;;;;;;6.50;99.90;;;;;;5090404;28;20302;-86
2022/11/07 06:57:14;;;;;;;;;;;6.50;99.90;;;;;;5100225;28;20324;-85
2022/11/07 06:59:39;;;;;;;;;;;6.50;99.90;;;;;;5093648;28;19962;-86
2022/11/07 07:02:05;;;;;;;;;;;6.60;99.90;;;;;;5095574;28;19924;-86
2022/11/07 07:04:31;;;;;;;;;;;6.70;99.90;;;;;;5102919;28;19916;-86
2022/11/07 07:06:56;;;;;;;;;;;6.80;99.90;;;;;;5095590;28;19939;-87
2022/11/07 07:09:22;;;;;;;;;;;6.90;99.90;;;;;;5101834;27;20364;-80
2022/11/07 07:11:47;;;;;;;;;;;7.00;99.90;;;;;;5091214;28;19916;-78
2022/11/07 07:14:13;;;;;;;;;;;7.10;99.90;;;;;;5094782;28;19974;-79
2022/11/07 07:16:38;;;;;;;;;;;7.10;99.90;;;;;;5096648;28;20018;-79
2022/11/07 07:19:04;;;;;;;;;;;7.20;99.90;;;;;;5101236;28;19917;-79
2022/11/07 07:21:29;;;;;;;;;;;7.40;99.60;;;;;;5090176;28;19928;-79
2022/11/07 07:23:55;;;;;;;;;;;7.50;99.70;;;;;;5097506;28;19920;-78
2022/11/07 07:26:21;;;;;;;;;;;7.60;99.30;;;;;;5107128;28;20046;-79
2022/11/07 07:28:47;;;;;;;;;;;7.70;98.80;;;;;;5095690;28;20386;-79
2022/11/07 07:31:13;;;;;;;;;;;7.80;99.00;;;;;;5096467;28;20394;-79
2022/11/07 07:33:42;;;;;;;;;;;7.90;98.60;;;;;;5100871;28;19912;-79
2022/11/07 07:36:09;;;;;;;;;;;8.10;98.30;;;;;;5092986;28;19916;-80
2022/11/07 07:38:35;;;;;;;;;;;8.20;97.20;;;;;;5093942;28;20009;-79
2022/11/07 07:41:01;;;;;;;;;;;8.30;97.30;;;;;;5102567;28;19916;-79
2022/11/07 07:43:27;;;;;;;;;;;8.40;96.50;;;;;;5080578;28;19917;-79
2022/11/07 07:45:56;;;;;;;;;;;8.50;96.40;;;;;;5091757;28;19924;-78
2022/11/07 07:48:21;;;;;;;;;;;8.60;96.40;;;;;;5093489;28;20028;-79
2022/11/07 07:50:48;;;;;;;;;;;8.70;96.30;;;;;;5097422;28;20403;-79
2022/11/07 07:53:14;;;;;;;;;;;8.80;96.30;;;;;;5089420;28;19916;-79
2022/11/07 07:55:39;;;;;;;;;;;8.90;95.60;;;;;;5100159;28;19950;-79
2022/11/07 07:58:05;;;;;;;;;;;9.10;96.00;;;;;;5100248;28;20426;-78
2022/11/07 08:00:30;;;;;;;;;;;9.10;94.80;;;;;;5093669;28;19912;-78
2022/11/07 08:03:03;;;;;;;;;;;9.30;94.80;;;;;;5100420;28;19927;-78
2022/11/07 08:05:29;;;;;;;;;;;9.30;94.30;;;;;;5094834;28;19938;-78
2022/11/07 08:07:55;;;;;;;;;;;9.40;94.50;;;;;;5089603;28;20396;-78
2022/11/07 08:10:20;;;;;;;;;;;9.40;94.00;;;;;;5097153;28;20348;-79
2022/11/07 08:12:46;;;;;;;;;;;9.50;93.60;;;;;;5103255;28;19919;-79
2022/11/07 08:15:12;;;;;;;;;;;9.60;93.70;;;;;;5095419;28;20379;-80
2022/11/07 08:17:38;;;;;;;;;;;9.70;92.80;;;;;;5102806;28;19920;-79
2022/11/07 08:20:04;;;;;;;;;;;9.90;92.80;;;;;;5091710;28;19912;-78
2022/11/07 08:22:30;;;;;;;;;;;10.00;92.10;;;;;;5093450;28;19981;-78
2022/11/07 08:24:55;;;;;;;;;;;10.00;92.30;;;;;;5092454;28;19920;-79
2022/11/07 08:27:21;;;;;;;;;;;10.00;91.80;;;;;;5095757;28;20456;-79
2022/11/07 08:29:46;;;;;;;;;;;10.10;91.60;;;;;;5101496;28;19931;-79
2022/11/07 08:32:12;;;;;;;;;;;10.10;91.20;;;;;;5095972;28;20313;-80
2022/11/07 08:34:37;;;;;;;;;;;10.20;91.50;;;;;;5100037;27;19916;-80
2022/11/07 08:37:03;;;;;;;;;;;10.20;91.10;;;;;;5087520;28;19924;-79
2022/11/07 08:39:28;;;;;;;;;;;10.30;91.10;;;;;;5095096;28;20440;-79
2022/11/07 08:41:54;;;;;;;;;;;10.30;90.70;;;;;;5088625;28;19920;-79
2022/11/07 08:44:19;;;;;;;;;;;10.40;90.30;;;;;;5090448;28;19915;-79
2022/11/07 08:46:45;;;;;;;;;;;10.40;90.30;;;;;;5075621;28;19962;-79
2022/11/07 08:49:10;;;;;;;;;;;10.40;90.10;;;;;;5080585;28;19920;-78
2022/11/07 08:51:36;;;;;;;;;;;10.40;90.40;;;;;;5097194;28;19969;-79
2022/11/07 08:54:01;;;;;;;;;;;10.40;90.00;;;;;;5087842;28;19916;-79
2022/11/07 08:56:27;;;;;;;;;;;10.50;90.20;;;;;;5097436;28;19925;-79
2022/11/07 08:58:52;;;;;;;;;;;10.60;88.90;;;;;;5096733;28;19947;-79
2022/11/07 09:01:18;;;;;;;;;;;10.50;89.10;;;;;;5087143;28;19918;-79
2022/11/07 09:03:44;;;;;;;;;;;10.60;89.30;;;;;;5097474;28;19916;-80
2022/11/07 09:06:09;;;;;;;;;;;10.50;88.80;;;;;;5099720;28;20382;-81
2022/11/07 09:08:35;;;;;;;;;;;10.60;89.10;;;;;;5090413;28;19920;-79
2022/11/07 09:11:04;;;;;;;;;;;10.60;89.20;;;;;;5098932;28;19916;-79
2022/11/07 09:13:31;;;;;;;;;;;10.80;89.30;;;;;;5096381;28;19955;-79
2022/11/07 09:15:58;;;;;;;;;;;10.80;88.20;;;;;;5089578;28;19924;-80
2022/11/07 09:18:24;;;;;;;;;;;10.90;88.20;;;;;;5100626;28;19966;-79
2022/11/07 09:20:49;;;;;;;;;;;10.90;86.90;;;;;;5099271;28;20047;-79
2022/11/07 09:23:15;;;;;;;;;;;11.20;87.80;;;;;;5095292;28;20276;-79
2022/11/07 09:25:40;;;;;;;;;;;11.20;85.90;;;;;;5095220;28;19970;-79
2022/11/07 09:28:06;;;;;;;;;;;11.30;86.60;;;;;;5074081;28;19924;-80
2022/11/07 09:30:31;;;;;;;;;;;11.50;85.30;;;;;;5091749;28;20380;-79
2022/11/07 09:32:57;;;;;;;;;;;11.40;84.10;;;;;;5093207;28;19916;-79
2022/11/07 09:35:22;;;;;;;;;;;11.50;84.20;;;;;;5089541;28;19920;-79
2022/11/07 09:37:49;;;;;;;;;;;11.50;83.40;;;;;;5090526;28;20393;-80
2022/11/07 09:40:23;;;;;;;;;;;11.50;83.30;;;;;;5099429;28;20295;-79
2022/11/07 09:42:55;;;;;;;;;;;11.60;84.50;;;;;;5101784;28;19948;-79
2022/11/07 09:45:21;;;;;;;;;;;11.50;82.60;;;;;;5087583;28;19927;-79
2022/11/07 09:47:49;;;;;;;;;;;11.60;82.90;;;;;;5094751;28;19912;-79
2022/11/07 09:50:26;;;;;;;;;;;11.60;82.00;;;;;;5093186;28;19920;-80
2022/11/07 09:52:56;;;;;;;;;;;11.70;84.20;;;;;;5085039;28;19912;-77
2022/11/07 09:55:24;;;;;;;;;;;11.90;81.80;;;;;;5095149;28;20295;-78
2022/11/07 09:57:52;;;;;;;;;;;12.00;81.90;;;;;;5096352;28;19922;-77
2022/11/07 10:00:19;;;;;;;;;;;12.00;80.20;;;;;;5090205;28;19962;-78
2022/11/07 10:02:46;;;;;;;;;;;12.00;81.40;;;;;;5097096;28;20383;-79
2022/11/07 10:05:13;;;;;;;;;;;11.90;80.30;;;;;;5101217;28;19912;-78
2022/11/07 10:07:53;;;;;;;;;;;11.80;80.50;;;;;;5090944;28;20552;-79
2022/11/07 10:10:18;;;;;;;;;;;11.90;80.40;;;;;;5097544;28;19912;-78
2022/11/07 10:12:49;;;;;;;;;;;12.10;79.50;;;;;;5097234;28;20366;-78
2022/11/07 10:15:15;;;;;;;;;;;12.30;80.60;;;;;;5089404;28;20019;-78
2022/11/07 10:17:58;;;;;;;;;;;12.50;80.30;;;;;;5098616;28;20511;-78
2022/11/07 10:20:41;;;;;;;;;;;12.50;79.00;;;;;;5098434;28;19950;-76
2022/11/07 10:23:07;;;;;;;;;;;12.60;79.30;;;;;;5092159;28;19923;-76
2022/11/07 10:25:33;;;;;;;;;;;12.50;78.20;;;;;;5096265;28;19923;-76
2022/11/07 10:28:05;;;;;;;;;;;12.60;79.40;;;;;;5098508;28;19923;-78
2022/11/07 10:30:31;;;;;;;;;;;12.50;78.20;;;;;;5091617;28;19928;-79
2022/11/07 10:32:57;;;;;;;;;;;12.50;80.20;;;;;;5100011;28;19926;-79
2022/11/07 10:35:30;;;;;;;;;;;12.50;79.40;;;;;;5101623;28;19947;-78
2022/11/07 10:37:57;;;;;;;;;;;12.70;79.90;;;;;;5090793;28;19920;-78
2022/11/07 10:40:25;;;;;;;;;;;12.80;78.60;;;;;;5094278;28;20165;-79
2022/11/07 10:42:52;;;;;;;;;;;12.60;77.50;;;;;;5094174;28;20537;-78
2022/11/07 10:45:17;;;;;;;;;;;12.70;79.30;;;;;;5092163;28;19928;-86
2022/11/07 10:47:53;;;;;;;;;;;12.90;78.90;;;;;;5093041;28;19954;-88
2022/11/07 10:50:20;;;;;;;;;;;12.80;77.50;;;;;;5087951;28;20336;-85
2022/11/07 10:52:57;;;;;;;;;;;12.70;77.20;;;;;;5091756;28;19920;-86
2022/11/07 10:55:22;;;;;;;;;;;12.90;76.80;;;;;;5096885;28;19998;-86
2022/11/07 10:58:06;;;;;;;;;;;13.00;76.50;;;;;;5097406;28;19959;-85
2022/11/07 11:00:33;;;;;;;;;;;13.00;77.00;;;;;;5100979;28;20602;-86
2022/11/07 11:02:59;;;;;;;;;;;13.00;74.50;;;;;;5089714;28;20003;-86
2022/11/07 11:05:24;;;;;;;;;;;13.40;75.40;;;;;;5095133;28;20062;-86
2022/11/07 11:07:50;;;;;;;;;;;13.50;74.60;;;;;;5100752;28;20333;-85
2022/11/07 11:10:17;;;;;;;;;;;13.60;74.30;;;;;;5101400;28;19923;-86
2022/11/07 11:12:44;;;;;;;;;;;13.60;74.50;;;;;;5099452;28;19924;-86
2022/11/07 11:15:18;;;;;;;;;;;13.40;73.00;;;;;;5099847;28;20010;-85
2022/11/07 11:17:44;;;;;;;;;;;13.70;74.00;;;;;;5103082;28;19922;-86
2022/11/07 11:20:28;;;;;;;;;;;13.70;73.50;;;;;;5105278;28;19966;-86
2022/11/07 11:22:54;;;;;;;;;;;13.70;73.40;;;;;;5095964;28;19919;-85
2022/11/07 11:25:20;;;;;;;;;;;13.80;72.80;;;;;;5092065;28;19916;-85
2022/11/07 11:27:47;;;;;;;;;;;13.70;72.20;;;;;;5101408;28;19911;-85
2022/11/07 11:30:20;;;;;;;;;;;13.80;74.20;;;;;;5097470;28;19917;-86
2022/11/07 11:32:57;;;;;;;;;;;13.70;74.40;;;;;;5099187;28;19911;-86
2022/11/07 11:35:28;;;;;;;;;;;13.50;73.10;;;;;;5098430;28;19916;-85
2022/11/07 11:38:03;;;;;;;;;;;13.40;72.60;;;;;;5089129;28;20037;-86
2022/11/07 11:40:34;;;;;;;;;;;13.50;72.60;;;;;;5098976;28;19919;-87
2022/11/07 11:43:03;;;;;;;;;;;13.60;72.20;;;;;;5102913;28;19962;-85
2022/11/07 11:45:49;;;;;;;;;;;13.60;71.70;;;;;;5097366;28;19931;-87
2022/11/07 11:48:17;;;;;;;;;;;13.50;71.80;;;;;;5084026;28;19920;-86
2022/11/07 11:50:51;;;;;;;;;;;13.30;73.80;;;;;;5101189;28;19942;-88
2022/11/07 11:53:19;;;;;;;;;;;13.30;72.10;;;;;;5097176;28;19919;-86
2022/11/07 11:55:52;;;;;;;;;;;13.30;72.00;;;;;;5104740;28;20284;-87
2022/11/07 11:58:22;;;;;;;;;;;13.20;71.30;;;;;;5098496;28;20276;-89
2022/11/07 12:00:56;;;;;;;;;;;13.20;71.40;;;;;;5098842;28;19970;-87
2022/11/07 12:03:24;;;;;;;;;;;13.40;73.30;;;;;;5102904;28;19916;-80
2022/11/07 12:05:50;;;;;;;;;;;13.30;70.90;;;;;;5095761;28;19916;-83
2022/11/07 12:08:21;;;;;;;;;;;13.30;71.60;;;;;;5097304;28;20287;-84
2022/11/07 12:10:52;;;;;;;;;;;13.20;71.90;;;;;;5105722;28;19942;-84
2022/11/07 12:13:39;;;;;;;;;;;13.50;71.90;;;;;;5096148;28;19916;-84
2022/11/07 12:16:14;;;;;;;;;;;13.40;70.60;;;;;;5093476;28;19923;-83
2022/11/07 12:18:39;;;;;;;;;;;13.40;72.20;;;;;;5105104;28;19966;-82
2022/11/07 12:21:43;;;;;;;;;;;13.50;71.90;;;;;;5095009;28;19974;-82
2022/11/07 12:24:24;;;;;;;;;;;13.70;73.20;;;;;;5046822;28;19948;-82
2022/11/07 12:26:54;;;;;;;;;;;13.70;72.20;;;;;;5041545;28;19924;-79
2022/11/07 12:29:38;;;;;;;;;;;13.70;71.90;;;;;;5075392;28;19920;-79
2022/11/07 12:32:10;;;;;;;;;;;13.60;72.00;;;;;;5101448;28;19972;-79
2022/11/07 12:34:48;;;;;;;;;;;13.60;72.10;;;;;;5115848;27;19965;-79
2022/11/07 12:37:35;;;;;;;;;;;13.70;72.20;;;;;;5091024;28;19974;-79
2022/11/07 12:40:13;;;;;;;;;;;13.50;70.70;;;;;;5101879;28;20682;-80
2022/11/07 12:42:38;;;;;;;;;;;13.70;71.80;;;;;;5100146;28;19912;-79
2022/11/07 12:45:04;;;;;;;;;;;13.60;71.40;;;;;;5090709;28;19930;-85
2022/11/07 12:47:36;;;;;;;;;;;13.60;71.40;;;;;;5102577;28;20397;-86
2022/11/07 12:50:11;;;;;;;;;;;13.50;70.10;;;;;;5096446;28;20093;-84
2022/11/07 12:53:03;;;;;;;;;;;13.30;69.60;;;;;;5093183;28;19920;-85
2022/11/07 12:55:46;;;;;;;;;;;13.40;71.20;;;;;;5055060;28;19916;-83
2022/11/07 12:58:27;;;;;;;;;;;13.40;70.60;;;;;;5088777;28;19931;-83
2022/11/07 13:00:54;;;;;;;;;;;13.40;68.30;;;;;;5088723;28;19924;-84
2022/11/07 13:03:38;;;;;;;;;;;13.50;69.80;;;;;;5113869;27;19955;-83
2022/11/07 13:06:09;;;;;;;;;;;13.50;69.90;;;;;;5100044;28;19964;-85
2022/11/07 13:08:37;;;;;;;;;;;13.60;69.10;;;;;;5093063;28;19911;-78
2022/11/07 13:11:18;;;;;;;;;;;13.50;69.30;;;;;;5093452;28;20001;-81
2022/11/07 13:13:52;;;;;;;;;;;13.30;70.50;;;;;;5101058;28;20375;-83
2022/11/07 13:16:22;;;;;;;;;;;13.10;69.90;;;;;;5095006;28;19916;-81
2022/11/07 13:18:48;;;;;;;;;;;13.20;69.80;;;;;;5091687;28;19916;-83
2022/11/07 13:21:13;;;;;;;;;;;13.20;70.10;;;;;;5097926;28;19996;-81
2022/11/07 13:23:39;;;;;;;;;;;13.40;68.40;;;;;;5094940;28;19923;-80
2022/11/07 13:26:06;;;;;;;;;;;13.60;69.20;;;;;;5100799;28;19923;-78
2022/11/07 13:28:36;;;;;;;;;;;13.90;69.40;;;;;;5091259;28;19922;-77
2022/11/07 13:31:02;;;;;;;;;;;13.80;67.70;;;;;;5084282;28;20407;-78
2022/11/07 13:33:29;;;;;;;;;;;14.00;69.10;;;;;;5102793;28;19911;-78
2022/11/07 13:36:09;;;;;;;;;;;14.00;68.30;;;;;;5096091;28;19974;-78
2022/11/07 13:38:39;;;;;;;;;;;14.10;67.40;;;;;;5091950;28;19919;-78
2022/11/07 13:41:06;;;;;;;;;;;14.10;67.40;;;;;;5090198;28;19923;-77
2022/11/07 13:43:45;;;;;;;;;;;13.90;68.30;;;;;;5092109;28;19974;-82
2022/11/07 13:46:16;;;;;;;;;;;13.90;67.40;;;;;;5085597;28;20438;-80
2022/11/07 13:48:50;;;;;;;;;;;14.10;67.60;;;;;;5098136;28;19912;-80
2022/11/07 13:51:18;;;;;;;;;;;14.00;66.90;;;;;;5108647;27;19924;-80
2022/11/07 13:53:59;;;;;;;;;;;13.80;66.50;;;;;;5090433;28;19966;-80
2022/11/07 13:56:28;;;;;;;;;;;13.90;67.60;;;;;;5094436;28;19920;-80
2022/11/07 13:58:54;;;;;;;;;;;13.90;68.60;;;;;;5090310;28;19916;-79
2022/11/07 14:01:20;;;;;;;;;;;13.90;66.90;;;;;;5101137;28;20287;-80
2022/11/07 14:03:46;;;;;;;;;;;14.00;66.70;;;;;;5100915;28;19995;-80
2022/11/07 14:06:12;;;;;;;;;;;14.00;66.60;;;;;;5097060;28;19963;-80
2022/11/07 14:08:39;;;;;;;;;;;14.20;67.20;;;;;;5094546;28;19920;-80
2022/11/07 14:11:14;;;;;;;;;;;14.10;67.80;;;;;;5102552;28;20371;-80
2022/11/07 14:13:39;;;;;;;;;;;14.00;67.50;;;;;;5095157;28;19919;-80
2022/11/07 14:16:07;;;;;;;;;;;13.90;67.90;;;;;;5092232;28;19919;-80
2022/11/07 14:18:38;;;;;;;;;;;13.90;68.50;;;;;;5103337;28;19923;-79
2022/11/07 14:21:03;;;;;;;;;;;13.80;68.50;;;;;;5095088;28;19916;-80
2022/11/07 14:23:31;;;;;;;;;;;13.60;69.10;;;;;;5091314;28;19947;-80
2022/11/07 14:26:01;;;;;;;;;;;13.50;70.40;;;;;;5098602;28;20298;-80
2022/11/07 14:28:33;;;;;;;;;;;13.50;69.50;;;;;;5088263;28;20076;-80
2022/11/07 14:30:59;;;;;;;;;;;13.50;69.40;;;;;;5087013;28;20473;-80
2022/11/07 14:33:25;;;;;;;;;;;13.60;69.40;;;;;;5096485;28;19916;-80
2022/11/07 14:35:50;;;;;;;;;;;13.50;69.40;;;;;;5091823;28;19954;-84
2022/11/07 14:38:18;;;;;;;;;;;13.50;69.90;;;;;;5082019;28;19920;-75
2022/11/07 14:40:44;;;;;;;;;;;13.70;69.20;;;;;;5098977;28;20300;-75